Terminal Aerodrome Forecast
Issued by NWS Sterling, VA

Home | Current Version | Previous Version | Text Only | Print | Product List | Glossary On
Versions: 1 2 3 4 5 6 7 8 9 10 11 12 13 14 15 16 17 18 19 20
600
FTUS41 KLWX 201124
TAFCHO
TAF
KCHO 201124Z 2012/2112 00000KT P6SM -SHRA OVC070
     FM201400 00000KT 5SM -RA BR OVC035
     FM201500 00000KT 3SM -RA BR OVC015
     FM201800 18004KT 6SM -DZ BR OVC008
     FM202300 00000KT 6SM -DZ BR OVC003=

USA.gov is the U.S. government's official web portal to all federal, state and local government web resources and services.